createdAt,value
2023-04-16T00:00:20.882Z,99516.62
2023-04-16T00:01:08.503Z,99516.62
2023-04-16T00:01:56.654Z,99518.84
2023-04-16T00:02:44.751Z,99521.66
2023-04-16T00:03:33.734Z,99520.50
2023-04-16T00:04:21.981Z,99520.66
2023-04-16T00:05:10.790Z,99520.34
2023-04-16T00:05:59.887Z,99514.16
2023-04-16T00:06:48.292Z,99526.88
2023-04-16T00:07:36.474Z,99522.03
2023-04-16T00:08:25.516Z,99520.03
2023-04-16T00:09:13.202Z,99520.34
2023-04-16T00:10:00.917Z,99521.03
2023-04-16T00:10:49.064Z,99523.53
2023-04-16T00:11:36.915Z,99528.22
2023-04-16T00:12:24.862Z,99526.03
2023-04-16T00:13:12.199Z,99530.22
2023-04-16T00:13:59.543Z,99524.84
2023-04-16T00:14:48.059Z,99527.03
2023-04-16T00:15:35.984Z,99526.22
2023-04-16T00:16:23.418Z,99532.59
2023-04-16T00:17:12.207Z,99526.88
2023-04-16T00:18:01.445Z,99529.53
2023-04-16T00:18:49.761Z,99532.59
2023-04-16T00:19:38.093Z,99537.25
2023-04-16T00:20:25.993Z,99537.28
2023-04-16T00:21:14.018Z,99536.78
2023-04-16T00:22:03.890Z,99530.25
2023-04-16T00:22:53.123Z,99536.75
2023-04-16T00:23:41.483Z,99537.13
2023-04-16T00:24:29.086Z,99530.25
2023-04-16T00:25:16.819Z,99536.09
2023-04-16T00:26:04.961Z,99534.44
2023-04-16T00:26:53.493Z,99530.22
2023-04-16T00:27:41.967Z,99541.47
2023-04-16T00:28:29.553Z,99533.59
2023-04-16T00:29:17.433Z,99542.16
2023-04-16T00:30:05.433Z,99539.47
2023-04-16T00:30:52.757Z,99539.13
2023-04-16T00:31:40.533Z,99544.66
2023-04-16T00:32:28.515Z,99540.62
2023-04-16T00:33:17.490Z,99536.94
2023-04-16T00:34:04.810Z,99535.94
2023-04-16T00:34:52.710Z,99543.63
2023-04-16T00:35:41.427Z,99540.78
2023-04-16T00:36:29.451Z,99542.97
2023-04-16T00:37:16.858Z,99541.31
2023-04-16T00:38:04.871Z,99549.84
2023-04-16T00:38:52.184Z,99552.03
2023-04-16T00:39:39.951Z,99550.19
2023-04-16T00:40:31.524Z,99552.53
2023-04-16T00:41:19.563Z,99542.47
2023-04-16T00:42:07.084Z,99555.22
2023-04-16T00:42:54.958Z,99556.22
2023-04-16T00:43:42.717Z,99553.38
2023-04-16T00:44:30.999Z,99554.56
2023-04-16T00:45:18.911Z,99550.34
2023-04-16T00:46:09.933Z,99551.37
2023-04-16T00:46:58.490Z,99547.50
2023-04-16T00:47:46.924Z,99548.88
2023-04-16T00:48:36.818Z,99548.84
2023-04-16T00:49:25.121Z,99548.84
2023-04-16T00:50:13.490Z,99548.84
2023-04-16T00:51:02.432Z,99544.16
2023-04-16T00:51:50.030Z,99538.13
2023-04-16T00:52:37.792Z,99547.53
2023-04-16T00:53:25.350Z,99542.31
2023-04-16T00:54:12.785Z,99538.28
2023-04-16T00:55:00.253Z,99545.31
2023-04-16T00:55:47.370Z,99541.50
2023-04-16T00:56:36.150Z,99545.84
2023-04-16T00:57:24.328Z,99543.81
2023-04-16T00:58:11.636Z,99543.16
2023-04-16T00:58:59.562Z,99544.19
2023-04-16T00:59:46.771Z,99539.47
2023-04-16T01:00:34.042Z,99549.03
2023-04-16T01:01:21.094Z,99544.50
2023-04-16T01:02:08.389Z,99549.69
2023-04-16T01:02:56.051Z,99548.72
2023-04-16T01:03:48.788Z,99554.41
2023-04-16T01:04:36.458Z,99552.53
2023-04-16T01:05:23.747Z,99548.69
2023-04-16T01:06:11.650Z,99554.91
2023-04-16T01:06:58.967Z,99549.53
2023-04-16T01:07:46.088Z,99546.66
2023-04-16T01:08:33.283Z,99551.87
2023-04-16T01:09:20.457Z,99550.22
2023-04-16T01:10:07.944Z,99552.03
2023-04-16T01:10:55.144Z,99549.69
2023-04-16T01:11:42.197Z,99550.72
2023-04-16T01:12:29.244Z,99546.69
2023-04-16T01:13:16.354Z,99553.88
2023-04-16T01:14:03.401Z,99551.56
2023-04-16T01:14:50.851Z,99547.69
2023-04-16T01:15:38.264Z,99547.69
2023-04-16T01:16:27.134Z,99550.03
2023-04-16T01:17:14.345Z,99548.88
2023-04-16T01:18:01.429Z,99553.88
2023-04-16T01:18:48.513Z,99551.56
2023-04-16T01:19:36.576Z,99553.72
2023-04-16T01:20:23.768Z,99551.34
2023-04-16T01:21:10.866Z,99560.44
2023-04-16T01:21:59.384Z,99558.75
2023-04-16T01:22:46.445Z,99562.78
2023-04-16T01:23:33.569Z,99561.94
2023-04-16T01:24:20.828Z,99562.59
2023-04-16T01:25:08.150Z,99559.09
2023-04-16T01:25:55.198Z,99565.13
2023-04-16T01:26:42.428Z,99561.94
2023-04-16T01:27:29.546Z,99556.56
2023-04-16T01:28:16.827Z,99558.28
2023-04-16T01:29:04.074Z,99563.94
2023-04-16T01:29:51.559Z,99562.59
2023-04-16T01:30:38.639Z,99563.94
2023-04-16T01:31:26.002Z,99561.63
2023-04-16T01:32:13.188Z,99560.59
2023-04-16T01:33:00.623Z,99566.81
2023-04-16T01:33:47.827Z,99565.09
2023-04-16T01:34:34.957Z,99564.28
2023-04-16T01:35:22.008Z,99568.97
2023-04-16T01:36:09.296Z,99563.12
2023-04-16T01:36:56.345Z,99564.31
2023-04-16T01:37:43.499Z,99562.97
2023-04-16T01:38:30.627Z,99565.97
2023-04-16T01:39:19.682Z,99562.81
2023-04-16T01:40:07.586Z,99567.00
2023-04-16T01:40:58.386Z,99560.13
2023-04-16T01:41:45.958Z,99565.50
2023-04-16T01:42:33.107Z,99559.63
2023-04-16T01:43:20.195Z,99563.97
2023-04-16T01:44:07.414Z,99561.13
2023-04-16T01:44:54.487Z,99563.28
2023-04-16T01:45:41.572Z,99559.59
2023-04-16T01:46:29.711Z,99564.13
2023-04-16T01:47:16.806Z,99559.09
2023-04-16T01:48:04.558Z,99560.09
2023-04-16T01:48:54.952Z,99558.59
2023-04-16T01:49:44.206Z,99553.53
2023-04-16T01:50:31.723Z,99554.38
2023-04-16T01:51:18.799Z,99555.88
2023-04-16T01:52:06.177Z,99558.06
2023-04-16T01:52:53.448Z,99558.22
2023-04-16T01:53:40.775Z,99565.28
2023-04-16T01:54:27.888Z,99560.75
2023-04-16T01:55:15.153Z,99559.56
2023-04-16T01:56:02.367Z,99557.25
2023-04-16T01:56:49.406Z,99556.88
2023-04-16T01:57:36.510Z,99564.47
2023-04-16T01:58:23.706Z,99563.12
2023-04-16T01:59:11.330Z,99566.78
2023-04-16T01:59:58.577Z,99566.78
2023-04-16T02:00:45.828Z,99566.47
2023-04-16T02:01:32.983Z,99570.81
2023-04-16T02:02:20.188Z,99570.00
2023-04-16T02:03:07.702Z,99564.44
2023-04-16T02:03:55.265Z,99571.31
2023-04-16T02:04:45.582Z,99561.41
2023-04-16T02:05:32.929Z,99560.59
2023-04-16T02:06:19.994Z,99556.88
2023-04-16T02:07:07.678Z,99563.75
2023-04-16T02:07:54.733Z,99566.78
2023-04-16T02:08:42.354Z,99563.78
2023-04-16T02:09:29.419Z,99567.00
2023-04-16T02:10:16.877Z,99563.97
2023-04-16T02:11:04.104Z,99566.66
2023-04-16T02:11:51.328Z,99568.34
2023-04-16T02:12:38.398Z,99571.69
2023-04-16T02:13:26.456Z,99567.00
2023-04-16T02:14:13.548Z,99565.31
2023-04-16T02:15:00.639Z,99574.22
2023-04-16T02:15:49.091Z,99575.34
2023-04-16T02:16:36.262Z,99569.53
2023-04-16T02:17:23.487Z,99567.81
2023-04-16T02:18:10.600Z,99564.31
2023-04-16T02:18:57.594Z,99568.13
2023-04-16T02:19:44.599Z,99577.22
2023-04-16T02:20:31.868Z,99572.69
2023-04-16T02:21:18.883Z,99577.38
2023-04-16T02:22:06.272Z,99576.03
2023-04-16T02:22:53.388Z,99569.69
2023-04-16T02:23:41.708Z,99570.00
2023-04-16T02:24:28.862Z,99571.84
2023-04-16T02:25:16.174Z,99578.22
2023-04-16T02:26:04.111Z,99572.69
2023-04-16T02:26:51.180Z,99573.72
2023-04-16T02:27:38.283Z,99578.56
2023-04-16T02:28:25.611Z,99576.53
2023-04-16T02:29:12.965Z,99569.16
2023-04-16T02:29:59.935Z,99576.88
2023-04-16T02:30:47.261Z,99572.38
2023-04-16T02:31:34.505Z,99572.00
2023-04-16T02:32:22.624Z,99573.69
2023-04-16T02:33:11.679Z,99573.34
2023-04-16T02:33:58.765Z,99572.16
2023-04-16T02:34:45.828Z,99573.50
2023-04-16T02:35:32.940Z,99572.69
2023-04-16T02:36:20.077Z,99577.69
2023-04-16T02:37:07.120Z,99574.34
2023-04-16T02:37:54.392Z,99570.16
2023-04-16T02:38:41.568Z,99570.00
2023-04-16T02:39:28.570Z,99572.00
2023-04-16T02:40:15.909Z,99572.00
2023-04-16T02:41:02.995Z,99571.50
2023-04-16T02:41:50.122Z,99565.97
2023-04-16T02:42:37.212Z,99582.25
2023-04-16T02:43:24.241Z,99580.91
2023-04-16T02:44:11.406Z,99577.88
2023-04-16T02:44:58.483Z,99580.06
2023-04-16T02:45:45.816Z,99573.00
2023-04-16T02:46:32.959Z,99575.00
2023-04-16T02:47:20.080Z,99577.00
2023-04-16T02:48:09.070Z,99578.22
2023-04-16T02:48:56.169Z,99578.88
2023-04-16T02:49:43.141Z,99578.56
2023-04-16T02:50:30.414Z,99577.38
2023-04-16T02:51:17.467Z,99576.69
2023-04-16T02:52:04.726Z,99575.34
2023-04-16T02:52:51.852Z,99580.22
2023-04-16T02:53:38.844Z,99576.53
2023-04-16T02:54:25.921Z,99583.41
2023-04-16T02:55:13.080Z,99579.38
2023-04-16T02:56:00.140Z,99577.53
2023-04-16T02:56:47.257Z,99588.09
2023-04-16T02:57:34.509Z,99586.78
2023-04-16T02:58:26.705Z,99583.72
2023-04-16T02:59:13.841Z,99586.25
2023-04-16T03:00:01.232Z,99587.09
2023-04-16T03:00:48.431Z,99591.97
2023-04-16T03:01:35.872Z,99596.00
2023-04-16T03:02:23.096Z,99598.50
2023-04-16T03:03:10.445Z,99594.31
2023-04-16T03:03:57.510Z,99593.50
2023-04-16T03:04:44.686Z,99597.16
2023-04-16T03:05:32.080Z,99599.00
2023-04-16T03:06:19.025Z,99598.34
2023-04-16T03:07:06.272Z,99597.53
2023-04-16T03:07:56.931Z,99599.53
2023-04-16T03:08:43.945Z,99596.50
2023-04-16T03:09:32.093Z,99598.00
2023-04-16T03:10:19.272Z,99598.50
2023-04-16T03:11:06.540Z,99598.50
2023-04-16T03:11:53.506Z,99606.09
2023-04-16T03:12:40.839Z,99600.56
2023-04-16T03:13:27.941Z,99599.19
2023-04-16T03:14:15.091Z,99603.25
2023-04-16T03:15:02.854Z,99599.03
2023-04-16T03:15:50.448Z,99604.22
2023-04-16T03:16:37.686Z,99598.34
2023-04-16T03:17:24.728Z,99601.19
2023-04-16T03:18:11.837Z,99596.50
2023-04-16T03:18:58.969Z,99599.84
2023-04-16T03:19:46.405Z,99606.75
2023-04-16T03:20:33.802Z,99591.81
2023-04-16T03:21:20.884Z,99605.72
2023-04-16T03:22:07.958Z,99605.94
2023-04-16T03:22:57.464Z,99604.06
2023-04-16T03:23:44.641Z,99605.25
2023-04-16T03:24:32.521Z,99607.25
2023-04-16T03:25:19.642Z,99605.72
2023-04-16T03:26:06.812Z,99609.75
2023-04-16T03:26:53.843Z,99611.25
2023-04-16T03:27:41.483Z,99603.56
2023-04-16T03:28:28.542Z,99611.63
2023-04-16T03:29:15.792Z,99613.94
2023-04-16T03:30:02.947Z,99610.06
2023-04-16T03:30:53.571Z,99610.44
2023-04-16T03:31:40.863Z,99610.94
2023-04-16T03:32:28.092Z,99616.62
2023-04-16T03:33:15.833Z,99612.94
2023-04-16T03:34:02.893Z,99612.75
2023-04-16T03:34:50.102Z,99614.63
2023-04-16T03:35:37.273Z,99614.09
2023-04-16T03:36:24.374Z,99611.78
2023-04-16T03:37:14.014Z,99608.94
2023-04-16T03:38:01.306Z,99609.75
2023-04-16T03:38:48.430Z,99618.31
2023-04-16T03:39:35.512Z,99605.22
2023-04-16T03:40:23.112Z,99607.38
2023-04-16T03:41:10.214Z,99608.41
2023-04-16T03:41:57.314Z,99606.91
2023-04-16T03:42:44.473Z,99614.63
2023-04-16T03:43:31.570Z,99616.12
2023-04-16T03:44:18.636Z,99612.44
2023-04-16T03:45:06.198Z,99619.47
2023-04-16T03:45:53.264Z,99610.94
2023-04-16T03:46:40.453Z,99617.66
2023-04-16T03:47:27.660Z,99617.66
2023-04-16T03:48:14.676Z,99616.47
2023-04-16T03:49:01.921Z,99618.31
2023-04-16T03:49:49.004Z,99625.03
2023-04-16T03:50:36.522Z,99616.31
2023-04-16T03:51:23.625Z,99618.31
2023-04-16T03:52:11.577Z,99625.38
2023-04-16T03:52:58.697Z,99627.22
2023-04-16T03:53:46.321Z,99622.84
2023-04-16T03:54:33.425Z,99623.03
2023-04-16T03:55:20.459Z,99627.53
2023-04-16T03:56:07.948Z,99629.06
2023-04-16T03:56:54.977Z,99631.09
2023-04-16T03:57:42.158Z,99635.78
2023-04-16T03:58:29.173Z,99632.44
2023-04-16T03:59:16.193Z,99626.38
2023-04-16T04:00:03.279Z,99630.94
2023-04-16T04:00:52.140Z,99635.78
2023-04-16T04:01:39.189Z,99629.53
2023-04-16T04:02:26.644Z,99634.91
2023-04-16T04:03:14.177Z,99632.06
2023-04-16T04:04:02.243Z,99637.13
2023-04-16T04:04:49.732Z,99637.63
2023-04-16T04:05:46.265Z,99635.47
2023-04-16T04:06:33.410Z,99636.28
2023-04-16T04:07:20.644Z,99632.78
2023-04-16T04:08:07.954Z,99630.06
2023-04-16T04:08:55.112Z,99632.78
2023-04-16T04:09:42.196Z,99634.44
2023-04-16T04:10:29.313Z,99630.09
2023-04-16T04:11:16.562Z,99636.63
2023-04-16T04:12:04.113Z,99634.44
2023-04-16T04:12:51.198Z,99643.00
2023-04-16T04:13:38.195Z,99638.78
2023-04-16T04:14:25.186Z,99642.16
2023-04-16T04:15:12.476Z,99644.69
2023-04-16T04:15:59.530Z,99648.03
2023-04-16T04:16:46.684Z,99641.47
2023-04-16T04:17:33.908Z,99648.88
2023-04-16T04:18:21.137Z,99642.81
2023-04-16T04:19:08.533Z,99649.22
2023-04-16T04:20:47.288Z,99647.34
2023-04-16T04:21:34.404Z,99657.94
2023-04-16T04:22:21.558Z,99645.66
2023-04-16T04:23:08.966Z,99654.41
2023-04-16T04:23:56.246Z,99653.72
2023-04-16T04:24:43.354Z,99656.91
2023-04-16T04:25:30.912Z,99653.75
2023-04-16T04:26:18.037Z,99658.25
2023-04-16T04:27:05.224Z,99661.09
2023-04-16T04:27:52.200Z,99661.09
2023-04-16T04:28:39.307Z,99665.31
2023-04-16T04:29:26.445Z,99657.44
2023-04-16T04:30:13.466Z,99661.09
2023-04-16T04:31:00.926Z,99664.31
2023-04-16T04:31:47.970Z,99663.13
2023-04-16T04:32:35.257Z,99660.59
2023-04-16T04:33:22.367Z,99661.59
2023-04-16T04:34:09.481Z,99663.59
2023-04-16T04:34:56.616Z,99668.13
2023-04-16T04:35:43.626Z,99661.75
2023-04-16T04:36:31.297Z,99670.28
2023-04-16T04:37:18.464Z,99674.31
2023-04-16T04:38:05.583Z,99670.28
2023-04-16T04:38:52.664Z,99670.09
2023-04-16T04:39:39.705Z,99666.41
2023-04-16T04:40:26.871Z,99676.69
2023-04-16T04:41:13.924Z,99673.78
2023-04-16T04:42:03.460Z,99668.75
2023-04-16T04:42:50.441Z,99672.63
2023-04-16T04:43:37.455Z,99668.41
2023-04-16T04:44:24.844Z,99676.81
2023-04-16T04:45:12.186Z,99668.88
2023-04-16T04:45:59.277Z,99670.38
2023-04-16T04:46:46.503Z,99670.25
2023-04-16T04:47:33.607Z,99665.72
2023-04-16T04:48:21.924Z,99673.25
2023-04-16T04:49:09.256Z,99679.53
2023-04-16T04:49:56.468Z,99679.69
2023-04-16T04:50:45.062Z,99677.53
2023-04-16T04:51:32.152Z,99675.84
2023-04-16T04:52:20.898Z,99685.56
2023-04-16T04:53:15.536Z,99687.06
2023-04-16T04:54:03.927Z,99682.31
2023-04-16T04:54:51.362Z,99675.59
2023-04-16T04:55:39.184Z,99679.44
2023-04-16T04:56:26.591Z,99676.06
2023-04-16T04:57:14.895Z,99682.44
2023-04-16T04:58:02.884Z,99688.50
2023-04-16T04:58:56.762Z,99680.72
2023-04-16T04:59:46.393Z,99679.22
2023-04-16T05:00:34.436Z,99679.06
2023-04-16T05:01:21.549Z,99687.06
2023-04-16T05:02:08.937Z,99690.09
2023-04-16T05:02:56.955Z,99690.75
2023-04-16T05:03:44.819Z,99690.88
2023-04-16T05:04:32.190Z,99691.56
2023-04-16T05:05:19.525Z,99689.84
2023-04-16T05:06:07.782Z,99691.41
2023-04-16T05:06:54.956Z,99693.41
2023-04-16T05:07:42.204Z,99697.75
2023-04-16T05:08:29.283Z,99693.22
2023-04-16T05:09:16.433Z,99693.53
2023-04-16T05:10:06.095Z,99698.72
2023-04-16T05:10:53.428Z,99693.22
2023-04-16T05:11:41.997Z,99695.75
2023-04-16T05:12:29.054Z,99694.00
2023-04-16T05:13:17.443Z,99700.72
2023-04-16T05:14:04.744Z,99697.69
2023-04-16T05:14:51.788Z,99699.84
2023-04-16T05:15:38.936Z,99700.19
2023-04-16T05:16:26.272Z,99700.69
2023-04-16T05:17:13.358Z,99702.56
2023-04-16T05:18:00.506Z,99703.81
2023-04-16T05:18:47.664Z,99700.81
2023-04-16T05:19:34.751Z,99698.13
2023-04-16T05:20:22.872Z,99693.34
2023-04-16T05:21:10.145Z,99705.63
2023-04-16T05:21:57.175Z,99707.78
2023-04-16T05:22:44.207Z,99698.03
2023-04-16T05:23:31.622Z,99703.25
2023-04-16T05:24:18.754Z,99706.75
2023-04-16T05:25:06.449Z,99705.09
2023-04-16T05:25:58.979Z,99707.62
2023-04-16T05:26:46.374Z,99703.53
2023-04-16T05:27:33.548Z,99703.19
2023-04-16T05:28:20.582Z,99705.84
2023-04-16T05:29:07.942Z,99703.81
2023-04-16T05:29:55.117Z,99712.72
2023-04-16T05:30:42.158Z,99708.19
2023-04-16T05:31:29.406Z,99717.63
2023-04-16T05:32:16.726Z,99715.84
2023-04-16T05:33:04.094Z,99708.22
2023-04-16T05:33:51.297Z,99711.03
2023-04-16T05:34:38.349Z,99717.09
2023-04-16T05:35:25.440Z,99718.28
2023-04-16T05:36:12.543Z,99718.31
2023-04-16T05:36:59.644Z,99720.31
2023-04-16T05:37:46.916Z,99718.50
2023-04-16T05:38:33.968Z,99718.78
2023-04-16T05:39:21.648Z,99718.94
2023-04-16T05:40:10.236Z,99723.34
2023-04-16T05:40:58.763Z,99721.03
2023-04-16T05:41:46.103Z,99725.03
2023-04-16T05:42:33.259Z,99718.81
2023-04-16T05:43:20.372Z,99721.34
2023-04-16T05:44:07.523Z,99720.34
2023-04-16T05:44:54.560Z,99729.50
2023-04-16T05:45:41.861Z,99725.28
2023-04-16T05:46:28.935Z,99726.06
2023-04-16T05:47:16.250Z,99735.47
2023-04-16T05:48:03.362Z,99732.00
2023-04-16T05:48:50.565Z,99740.09
2023-04-16T05:49:37.784Z,99735.06
2023-04-16T05:50:25.117Z,99734.31
2023-04-16T05:51:12.317Z,99739.28
2023-04-16T05:51:59.346Z,99736.75
2023-04-16T05:52:46.516Z,99737.13
2023-04-16T05:53:33.578Z,99738.88
2023-04-16T05:54:20.841Z,99745.50
2023-04-16T05:55:08.424Z,99738.78
2023-04-16T05:55:55.665Z,99739.59
2023-04-16T05:56:43.445Z,99740.53
2023-04-16T05:57:30.715Z,99736.88
2023-04-16T05:58:17.937Z,99744.16
2023-04-16T05:59:04.985Z,99744.59
2023-04-16T05:59:52.044Z,99744.25
2023-04-16T06:00:39.871Z,99742.53
2023-04-16T06:01:27.168Z,99741.81
2023-04-16T06:02:14.450Z,99743.97
2023-04-16T06:03:02.868Z,99744.28
2023-04-16T06:03:50.544Z,99742.44
2023-04-16T06:04:37.834Z,99743.31
2023-04-16T06:05:27.074Z,99748.38
2023-04-16T06:06:14.235Z,99747.66
2023-04-16T06:07:01.687Z,99751.66
2023-04-16T06:07:48.731Z,99749.84
2023-04-16T06:08:35.962Z,99757.56
2023-04-16T06:09:23.002Z,99759.94
2023-04-16T06:10:10.543Z,99757.69
2023-04-16T06:10:57.565Z,99751.44
2023-04-16T06:11:45.006Z,99756.69
2023-04-16T06:12:31.988Z,99756.13
2023-04-16T06:13:19.193Z,99754.41
2023-04-16T06:14:06.223Z,99760.62
2023-04-16T06:14:53.340Z,99759.09
2023-04-16T06:15:40.426Z,99759.44
2023-04-16T06:16:27.544Z,99763.97
2023-04-16T06:17:14.795Z,99757.06
2023-04-16T06:18:01.883Z,99764.22
2023-04-16T06:18:49.071Z,99761.59
2023-04-16T06:19:36.547Z,99765.59
2023-04-16T06:20:23.739Z,99766.44
2023-04-16T06:21:11.044Z,99762.91
2023-04-16T06:21:58.249Z,99762.03
2023-04-16T06:22:45.307Z,99762.16
2023-04-16T06:23:32.424Z,99767.72
2023-04-16T06:24:19.901Z,99770.34
2023-04-16T06:25:07.531Z,99765.34
2023-04-16T06:25:54.794Z,99766.47
2023-04-16T06:26:41.848Z,99768.38
2023-04-16T06:27:28.860Z,99766.88
2023-04-16T06:28:15.988Z,99766.38
2023-04-16T06:29:03.136Z,99769.69
2023-04-16T06:29:50.843Z,99765.47
2023-04-16T06:30:37.863Z,99765.78
2023-04-16T06:31:25.151Z,99769.69
2023-04-16T06:32:12.591Z,99770.84
2023-04-16T06:32:59.965Z,99773.53
2023-04-16T06:33:46.972Z,99772.94
2023-04-16T06:34:34.071Z,99767.91
2023-04-16T06:35:21.183Z,99773.75
2023-04-16T06:36:08.236Z,99767.09
2023-04-16T06:36:55.710Z,99767.88
2023-04-16T06:37:42.831Z,99774.41
2023-04-16T06:38:29.868Z,99776.72
2023-04-16T06:39:17.002Z,99768.53
2023-04-16T06:40:04.361Z,99773.03
2023-04-16T06:40:51.360Z,99771.81
2023-04-16T06:41:38.534Z,99778.03
2023-04-16T06:42:25.723Z,99776.94
2023-04-16T06:43:12.825Z,99773.50
2023-04-16T06:43:59.818Z,99772.59
2023-04-16T06:44:47.046Z,99770.41
2023-04-16T06:45:34.972Z,99771.22
2023-04-16T06:46:22.218Z,99771.34
2023-04-16T06:47:09.427Z,99773.63
2023-04-16T06:47:56.748Z,99777.03
2023-04-16T06:48:43.833Z,99774.63
2023-04-16T06:49:31.116Z,99775.28
2023-04-16T06:50:18.198Z,99771.59
2023-04-16T06:51:05.309Z,99774.47
2023-04-16T06:51:52.744Z,99779.03
2023-04-16T06:52:39.909Z,99775.00
2023-04-16T06:53:26.978Z,99773.81
2023-04-16T06:54:14.162Z,99774.69
2023-04-16T06:55:02.198Z,99768.31
2023-04-16T06:55:49.280Z,99774.09
2023-04-16T06:56:37.681Z,99767.72
2023-04-16T06:57:24.931Z,99772.87
2023-04-16T06:58:12.069Z,99774.09
2023-04-16T06:59:01.180Z,99779.91
2023-04-16T06:59:48.234Z,99769.12
2023-04-16T07:00:35.528Z,99779.19
2023-04-16T07:01:22.581Z,99767.38
2023-04-16T07:02:10.991Z,99771.78
2023-04-16T07:02:58.762Z,99774.88
2023-04-16T07:03:46.907Z,99777.38
2023-04-16T07:04:34.212Z,99770.78
2023-04-16T07:05:21.500Z,99769.00
2023-04-16T07:06:08.899Z,99764.22
2023-04-16T07:06:55.951Z,99767.72
2023-04-16T07:07:42.925Z,99770.25
2023-04-16T07:08:30.032Z,99772.87
2023-04-16T07:09:18.232Z,99775.47
2023-04-16T07:10:06.309Z,99777.25
2023-04-16T07:10:54.162Z,99770.56
2023-04-16T07:11:41.563Z,99771.13
2023-04-16T07:12:28.922Z,99775.19
2023-04-16T07:13:16.084Z,99773.88
2023-04-16T07:14:03.443Z,99768.34
2023-04-16T07:14:50.474Z,99770.66
2023-04-16T07:15:37.493Z,99772.66
2023-04-16T07:16:24.845Z,99771.38
2023-04-16T07:17:11.952Z,99772.53
2023-04-16T07:17:59.124Z,99781.28
2023-04-16T07:18:46.271Z,99768.28
2023-04-16T07:19:33.286Z,99765.56
2023-04-16T07:20:20.353Z,99774.41
2023-04-16T07:21:07.593Z,99771.22
2023-04-16T07:21:54.694Z,99774.56
2023-04-16T07:22:41.768Z,99772.63
2023-04-16T07:23:28.824Z,99775.22
2023-04-16T07:24:16.214Z,99774.53
2023-04-16T07:25:03.532Z,99777.81
2023-04-16T07:25:50.712Z,99775.50
2023-04-16T07:26:38.116Z,99779.28
2023-04-16T07:27:25.397Z,99781.28
2023-04-16T07:28:12.572Z,99784.75
2023-04-16T07:28:59.493Z,99784.09
2023-04-16T07:29:46.984Z,99781.41
2023-04-16T07:30:36.864Z,99776.94
2023-04-16T07:31:23.940Z,99786.44
2023-04-16T07:32:12.394Z,99782.59
2023-04-16T07:33:01.884Z,99777.53
2023-04-16T07:33:49.006Z,99787.16
2023-04-16T07:34:36.463Z,99784.25
2023-04-16T07:35:23.510Z,99784.56
2023-04-16T07:36:11.283Z,99781.22
2023-04-16T07:36:58.298Z,99782.91
2023-04-16T07:37:45.314Z,99782.03
2023-04-16T07:38:32.366Z,99783.84
2023-04-16T07:39:19.485Z,99781.22
2023-04-16T07:40:07.304Z,99785.53
2023-04-16T07:40:55.906Z,99783.47
2023-04-16T07:41:43.830Z,99778.19
2023-04-16T07:42:30.963Z,99773.69
2023-04-16T07:43:18.004Z,99783.19
2023-04-16T07:44:05.174Z,99784.50
2023-04-16T07:44:52.179Z,99772.37
2023-04-16T07:45:40.454Z,99767.13
2023-04-16T07:46:36.110Z,99777.63
2023-04-16T07:47:30.707Z,99785.63
2023-04-16T07:48:17.823Z,99784.78
2023-04-16T07:49:04.821Z,99782.66
2023-04-16T07:49:51.924Z,99780.31
2023-04-16T07:50:39.252Z,99782.72
2023-04-16T07:51:26.494Z,99784.06
2023-04-16T07:52:13.794Z,99786.84
2023-04-16T07:53:00.943Z,99781.50
2023-04-16T07:53:48.055Z,99785.59
2023-04-16T07:54:35.026Z,99781.66
2023-04-16T07:55:22.223Z,99782.25
2023-04-16T07:56:09.846Z,99786.28
2023-04-16T07:56:56.843Z,99788.81
2023-04-16T07:57:43.892Z,99791.03
2023-04-16T07:58:31.037Z,99779.84
2023-04-16T07:59:23.535Z,99786.34
2023-04-16T08:00:11.779Z,99787.00
2023-04-16T08:00:59.570Z,99784.66
2023-04-16T08:01:46.693Z,99787.87
2023-04-16T08:02:34.239Z,99783.03
2023-04-16T08:03:21.663Z,99787.28
2023-04-16T08:04:09.182Z,99778.72
2023-04-16T08:04:56.513Z,99780.34
2023-04-16T08:05:43.655Z,99784.84
2023-04-16T08:06:31.650Z,99786.00
2023-04-16T08:07:18.723Z,99784.84
2023-04-16T08:08:05.916Z,99778.03
2023-04-16T08:08:53.022Z,99776.75
2023-04-16T08:09:49.757Z,99781.69
2023-04-16T08:10:36.822Z,99783.50
2023-04-16T08:11:24.411Z,99777.69
2023-04-16T08:12:11.707Z,99779.44
2023-04-16T08:13:01.229Z,99785.03
2023-04-16T08:13:48.313Z,99781.22
2023-04-16T08:14:35.336Z,99777.78
2023-04-16T08:15:22.716Z,99787.50
2023-04-16T08:16:10.045Z,99786.91
2023-04-16T08:16:57.114Z,99782.22
2023-04-16T08:17:44.246Z,99785.44
2023-04-16T08:18:31.305Z,99786.50
2023-04-16T08:19:18.544Z,99790.72
2023-04-16T08:20:06.969Z,99792.38
2023-04-16T08:20:54.200Z,99798.19
2023-04-16T08:21:41.422Z,99794.84
2023-04-16T08:22:28.625Z,99800.88
2023-04-16T08:23:16.033Z,99796.53
2023-04-16T08:24:03.276Z,99797.47
2023-04-16T08:24:50.488Z,99796.19
2023-04-16T08:25:37.533Z,99800.03
2023-04-16T08:26:24.562Z,99804.34
2023-04-16T08:27:19.347Z,99796.09
2023-04-16T08:28:07.056Z,99802.59
2023-04-16T08:28:54.164Z,99806.34
2023-04-16T08:29:41.538Z,99801.53
2023-04-16T08:30:29.025Z,99811.34
2023-04-16T08:31:16.550Z,99803.25
2023-04-16T08:32:03.713Z,99803.37
2023-04-16T08:32:50.903Z,99807.66
2023-04-16T08:33:37.992Z,99802.56
2023-04-16T08:34:25.184Z,99807.12
2023-04-16T08:35:12.389Z,99801.53
2023-04-16T08:35:59.456Z,99801.31
2023-04-16T08:36:46.745Z,99804.72
2023-04-16T08:37:33.899Z,99807.84
2023-04-16T08:38:20.995Z,99803.72
2023-04-16T08:39:08.419Z,99801.19
2023-04-16T08:39:55.624Z,99799.97
2023-04-16T08:40:43.386Z,99801.63
2023-04-16T08:41:33.427Z,99796.53
2023-04-16T08:42:34.487Z,99802.75
2023-04-16T08:43:24.369Z,99807.78
2023-04-16T08:44:28.784Z,99808.03
2023-04-16T08:45:17.910Z,99809.97
2023-04-16T08:46:06.342Z,99802.09
2023-04-16T08:46:58.466Z,99807.59
2023-04-16T08:47:47.565Z,99811.06
2023-04-16T08:48:35.259Z,99809.31
2023-04-16T08:49:22.427Z,99812.41
2023-04-16T08:50:11.907Z,99801.22
2023-04-16T08:51:00.896Z,99811.53
2023-04-16T08:51:52.512Z,99806.12
2023-04-16T08:52:52.634Z,99806.50
2023-04-16T08:54:00.789Z,99811.28
2023-04-16T08:55:01.255Z,99815.16
2023-04-16T08:55:51.487Z,99821.13
2023-04-16T08:56:41.270Z,99817.00
2023-04-16T08:57:45.767Z,99816.66
2023-04-16T08:58:34.958Z,99817.75
2023-04-16T08:59:22.422Z,99820.94
2023-04-16T09:00:10.212Z,99818.72
2023-04-16T09:00:57.325Z,99819.56
2023-04-16T09:01:45.816Z,99823.59
2023-04-16T09:02:33.168Z,99824.56
2023-04-16T09:03:22.017Z,99829.25
2023-04-16T09:04:09.749Z,99820.63
2023-04-16T09:04:59.531Z,99830.53
2023-04-16T09:05:47.502Z,99824.41
2023-04-16T09:06:35.401Z,99823.78
2023-04-16T09:07:22.443Z,99827.03
2023-04-16T09:08:09.635Z,99828.72
2023-04-16T09:08:58.521Z,99828.72
2023-04-16T09:09:46.743Z,99826.06
2023-04-16T09:10:34.028Z,99823.38
2023-04-16T09:11:21.314Z,99821.59
2023-04-16T09:12:09.398Z,99815.88
2023-04-16T09:12:57.492Z,99833.37
2023-04-16T09:13:45.919Z,99826.84
2023-04-16T09:14:32.913Z,99824.81
2023-04-16T09:15:21.278Z,99825.37
2023-04-16T09:16:09.735Z,99826.06
2023-04-16T09:16:57.642Z,99821.34
2023-04-16T09:17:44.789Z,99825.09
2023-04-16T09:18:31.885Z,99827.09
2023-04-16T09:19:19.094Z,99828.47
2023-04-16T09:20:08.979Z,99824.13
2023-04-16T09:20:57.336Z,99818.72
2023-04-16T09:21:47.426Z,99818.06